Aeroporto :
LOGIN :

Iscrizione | Disclaimer

   EN    FR    IT 

 










Sommario :    VFR   VFR Marginale   IFR   IFR Intensivo   IFR Molto Intensivo
Visibilità : 
Base nubi : 
>= 8 km
>= 3000ft
5 / 8 km
1000 / 3000 ft
1500m / 5 km
500 / 1000 ft
800 / 1500m
200 / 500 ft
< 800m
< 200 ft
Simboli :   Temporali  Nebbia  Neve Forte  Precipitazioni Forti  Vento > 20 kt
SIGMETs :   Varie  Temporali  Ghiacco  Turbolenza  Onda orograficha  Ceneri Vulcaniche






- Altitudine del aeroporto : 362 ft
- Codice IATA : WAW


EPWA - Warsaw Okecie

ULTIMO METAR :
  • 250100Z 28004KT CAVOK 09/08 Q1021 NOSIG

METARs OBSOLETI :
  • 250030Z 28003KT 250V310 CAVOK 09/08 Q1021 NOSIG
  • 250000Z 28003KT 250V310 CAVOK 09/08 Q1021 NOSIG
  • 242330Z 28003KT 240V320 CAVOK 09/08 Q1021 NOSIG
  • 242300Z 27003KT 230V310 CAVOK 09/08 Q1021 NOSIG
  • 242230Z 27003KT 240V310 CAVOK 08/07 Q1021 NOSIG

TAF TAF EPWA
Valido dal 25 a 00 ore il 26 a 00 ore UTC


242330Z 2500/2524 27005KT CAVOK
PROB40
TEMPO 2501/2508 BKN008 BKN014
TEMPO 2505/2518 4000 SHRA BKN020CB
PROB40
TEMPO 2510/2518 30015G30KT 2000 TSRA BKN014CB
PROB40
TEMPO 2518/2524 -SHRA SCT014 BKN028CB



MetMap, La meteo Aeronautica in un colpo d'occhio ! - Copyright ORBIFLY Dicembre 2007 - Disclaimer

ORBIFLY MET'MAP TEAM :

Programmazione e sviluppo : Alexandra Zaïnal
Concezione : Baudouin d'Aumeries
Aiuto per la programmazione : Marc-Olivier Méhu
Supporto tecnico e logistico : Manuel Goepfert
Aiuto per la traduzione : Arnaldo La Scala

Contatto : metmap@orbifly.com




FONTI E CREDITI :

   NOAA